Time;durP1;ratioP1;P1;durP2;ratioP2;P2;SDS_P1;SDS_P2;PMS_P1;PMS_P2;Temp;Humidity;BMP_temperature;BMP_pressure;BME280_temperature;BME280_humidity;BME280_pressure;Samples;Min_cycle;Max_cycle;Signal;HPM_P1;HPM_P2
2022/04/01 00:02:24;;;;;;;22.73;14.68;;;;;;;1.43;100.00;94792.28;4997237;28;20480;-69
2022/04/01 00:04:50;;;;;;;21.30;13.20;;;;;;;1.55;100.00;94789.63;4999569;28;20548;-70
2022/04/01 00:07:16;;;;;;;25.58;14.85;;;;;;;1.43;100.00;94786.22;4999267;28;20045;-71
2022/04/01 00:09:41;;;;;;;24.08;14.05;;;;;;;1.20;100.00;94794.94;5000363;28;20116;-71
2022/04/01 00:12:08;;;;;;;21.75;12.82;;;;;;;0.97;100.00;94786.00;4998102;28;20041;-71
2022/04/01 00:14:34;;;;;;;25.65;15.15;;;;;;;0.92;100.00;94787.72;4997388;28;20041;-71
2022/04/01 00:17:00;;;;;;;23.85;14.48;;;;;;;0.99;100.00;94786.59;4999503;28;20046;-69
2022/04/01 00:19:26;;;;;;;25.05;14.60;;;;;;;0.94;100.00;94783.84;5000447;28;20439;-69
2022/04/01 00:21:52;;;;;;;26.15;14.15;;;;;;;0.84;100.00;94779.13;4998971;28;20045;-71
2022/04/01 00:24:18;;;;;;;21.48;10.75;;;;;;;0.74;100.00;94794.69;4998097;28;20520;-69
2022/04/01 00:26:45;;;;;;;22.75;13.98;;;;;;;0.76;100.00;94791.84;5000519;28;20040;-71
2022/04/01 00:29:18;;;;;;;26.23;14.13;;;;;;;0.69;100.00;94797.19;4991299;28;20045;-71
2022/04/01 00:32:01;;;;;;;26.52;15.13;;;;;;;0.74;100.00;94789.44;4977601;28;20042;-70
2022/04/01 00:34:28;;;;;;;23.23;13.30;;;;;;;0.77;100.00;94788.16;4994717;28;20038;-70
2022/04/01 00:36:55;;;;;;;26.77;13.80;;;;;;;0.59;100.00;94796.16;4996003;28;20026;-71
2022/04/01 00:39:22;;;;;;;28.48;14.90;;;;;;;0.71;100.00;94792.53;4975697;28;20042;-71
2022/04/01 00:41:49;;;;;;;24.67;13.70;;;;;;;0.54;100.00;94787.13;4995912;28;20049;-70
2022/04/01 00:44:15;;;;;;;22.90;13.27;;;;;;;0.68;100.00;94790.34;4977469;28;20547;-70
2022/04/01 00:46:42;;;;;;;26.67;14.25;;;;;;;0.94;100.00;94790.94;4980377;28;20171;-69
2022/04/01 00:49:07;;;;;;;22.98;13.07;;;;;;;1.05;100.00;94790.13;4996145;28;20092;-71
2022/04/01 00:51:34;;;;;;;21.75;12.68;;;;;;;1.02;100.00;94790.59;4994615;28;20157;-70
2022/04/01 00:53:59;;;;;;;23.63;14.70;;;;;;;0.97;100.00;94793.13;4993743;28;20034;-70
2022/04/01 00:56:31;;;;;;;25.50;14.23;;;;;;;0.95;100.00;94803.09;4994056;28;20038;-69
2022/04/01 00:58:58;;;;;;;23.33;12.82;;;;;;;0.91;100.00;94794.03;4993686;28;20042;-71
2022/04/01 01:01:24;;;;;;;26.63;14.07;;;;;;;0.78;100.00;94802.97;4994171;28;20656;-71
2022/04/01 01:03:50;;;;;;;20.92;13.05;;;;;;;0.98;100.00;94802.63;4992743;28;20357;-71
2022/04/01 01:06:21;;;;;;;24.50;13.73;;;;;;;1.08;100.00;94805.47;4995730;28;20033;-70
2022/04/01 01:08:47;;;;;;;25.20;14.15;;;;;;;0.96;100.00;94802.06;4992718;28;20089;-70
2022/04/01 01:11:14;;;;;;;22.15;12.38;;;;;;;0.95;100.00;94800.44;4993219;28;20092;-71
2022/04/01 01:13:40;;;;;;;23.58;13.60;;;;;;;0.96;100.00;94802.06;4994454;28;20076;-72
2022/04/01 01:16:07;;;;;;;18.77;12.48;;;;;;;0.96;100.00;94797.59;4995855;28;20026;-70
2022/04/01 01:18:33;;;;;;;21.50;11.82;;;;;;;0.99;100.00;94798.94;4991353;28;20044;-69
2022/04/01 01:20:59;;;;;;;21.33;11.85;;;;;;;0.91;100.00;94786.13;4991658;28;20030;-71
2022/04/01 01:23:34;;;;;;;20.50;12.68;;;;;;;0.80;100.00;94799.06;4992909;28;20135;-71
2022/04/01 01:26:00;;;;;;;20.98;11.82;;;;;;;0.82;100.00;94796.19;4994602;28;20117;-70
2022/04/01 01:28:27;;;;;;;21.70;12.93;;;;;;;0.94;100.00;94790.94;4989206;28;20037;-70
2022/04/01 01:30:52;;;;;;;18.60;12.05;;;;;;;0.83;100.00;94795.16;5002035;28;20038;-70
2022/04/01 01:33:25;;;;;;;19.38;11.43;;;;;;;0.81;100.00;94779.59;4996666;28;20041;-71
2022/04/01 01:35:51;;;;;;;19.33;10.75;;;;;;;0.87;100.00;94783.16;4997484;28;20504;-69
2022/04/01 01:38:17;;;;;;;18.05;11.63;;;;;;;0.87;100.00;94795.53;4993934;28;20040;-71
2022/04/01 01:40:45;;;;;;;20.33;12.57;;;;;;;0.98;100.00;94787.63;5003481;28;20038;-71
2022/04/01 01:43:10;;;;;;;18.88;10.77;;;;;;;1.03;100.00;94776.41;4997329;28;20068;-69
2022/04/01 01:45:36;;;;;;;16.55;10.35;;;;;;;1.05;100.00;94776.97;4998118;28;20136;-70
2022/04/01 01:48:02;;;;;;;14.43;8.75;;;;;;;0.86;100.00;94771.03;4996554;28;20044;-70
2022/04/01 01:55:56;;;;;;;15.77;10.00;;;;;;;0.78;100.00;94784.53;5002100;28;20233;-70
2022/04/01 01:58:22;;;;;;;12.05;8.15;;;;;;;0.60;100.00;94787.25;4998680;28;20465;-69
2022/04/01 02:00:49;;;;;;;17.00;10.65;;;;;;;0.66;100.00;94781.88;4993246;28;20052;-71
2022/04/01 02:03:15;;;;;;;17.55;10.68;;;;;;;0.75;100.00;94784.97;4998269;28;20042;-70
2022/04/01 02:05:41;;;;;;;15.55;10.15;;;;;;;0.82;100.00;94783.84;4997787;28;20420;-70
2022/04/01 02:08:07;;;;;;;16.33;10.27;;;;;;;0.80;100.00;94772.72;4999180;28;20025;-69
2022/04/01 02:10:33;;;;;;;15.63;10.30;;;;;;;0.83;100.00;94782.78;4997186;28;20037;-69
2022/04/01 02:12:58;;;;;;;14.05;9.07;;;;;;;0.84;100.00;94783.59;4995155;28;20041;-69
2022/04/01 02:15:27;;;;;;;14.43;9.05;;;;;;;0.86;100.00;94778.94;4993939;28;20034;-69
2022/04/01 02:17:53;;;;;;;17.52;9.77;;;;;;;0.72;100.00;94788.06;4998137;28;20535;-69
2022/04/01 02:20:18;;;;;;;14.77;9.38;;;;;;;0.63;100.00;94782.34;5000909;28;20038;-71
2022/04/01 02:22:44;;;;;;;17.02;9.93;;;;;;;0.73;100.00;94790.47;5001711;28;20121;-70
2022/04/01 02:25:13;;;;;;;14.10;9.45;;;;;;;0.80;100.00;94793.78;4982271;28;20471;-70
2022/04/01 02:27:39;;;;;;;13.43;8.07;;;;;;;0.75;100.00;94791.03;4988881;28;20477;-69
2022/04/01 02:30:12;;;;;;;16.75;9.90;;;;;;;0.89;100.00;94790.81;5014256;28;20048;-70
2022/04/01 02:32:44;;;;;;;12.18;8.23;;;;;;;0.88;100.00;94797.94;4998067;28;20041;-71
2022/04/01 02:35:15;;;;;;;15.45;9.15;;;;;;;0.78;100.00;94795.88;4999639;28;20464;-70
2022/04/01 02:37:42;;;;;;;14.18;9.23;;;;;;;0.82;100.00;94801.47;4999844;28;20064;-71
2022/04/01 02:40:11;;;;;;;13.23;8.07;;;;;;;0.82;100.00;94797.00;4997736;28;20068;-70
2022/04/01 02:42:38;;;;;;;11.80;6.97;;;;;;;0.61;100.00;94789.63;4998280;28;20029;-69
2022/04/01 02:45:04;;;;;;;14.52;8.85;;;;;;;0.48;100.00;94795.13;5010142;28;20061;-71
2022/04/01 02:47:30;;;;;;;12.93;7.82;;;;;;;0.52;100.00;94791.00;5000229;28;20164;-70
2022/04/01 02:49:56;;;;;;;12.85;8.25;;;;;;;0.72;100.00;94806.50;5001405;28;20050;-71
2022/04/01 02:52:22;;;;;;;13.40;8.60;;;;;;;0.80;100.00;94799.06;5015525;28;20065;-70
2022/04/01 02:54:48;;;;;;;12.30;7.47;;;;;;;0.76;100.00;94794.47;5014895;28;20034;-71
2022/04/01 02:57:13;;;;;;;15.27;8.45;;;;;;;0.86;100.00;94799.16;4995836;28;20042;-70
2022/04/01 02:59:40;;;;;;;12.95;8.25;;;;;;;0.84;100.00;94802.81;4997639;28;20100;-70
2022/04/01 03:02:07;;;;;;;11.45;7.50;;;;;;;0.82;100.00;94807.53;5013539;28;20124;-70
2022/04/01 03:04:33;;;;;;;12.15;7.00;;;;;;;0.69;100.00;94810.38;4997764;28;20052;-70
2022/04/01 03:07:00;;;;;;;19.25;8.40;;;;;;;0.75;100.00;94801.56;4999092;28;20352;-71
2022/04/01 03:09:27;;;;;;;13.40;6.10;;;;;;;0.73;100.00;94816.00;5000756;28;20069;-69
2022/04/01 03:12:14;;;;;;;12.18;6.85;;;;;;;0.53;100.00;94813.66;4996936;28;20034;-70
2022/04/01 03:14:49;;;;;;;11.93;7.63;;;;;;;0.49;100.00;94809.88;5000642;28;20469;-70
2022/04/01 03:17:33;;;;;;;12.57;7.78;;;;;;;0.69;100.00;94818.25;5000390;28;20038;-70
2022/04/01 03:20:11;;;;;;;12.38;7.30;;;;;;;0.79;100.00;94813.25;4996876;28;20030;-69
2022/04/01 03:22:36;;;;;;;12.52;7.57;;;;;;;0.73;100.00;94806.25;5015503;28;20050;-71
2022/04/01 03:25:05;;;;;;;13.07;7.30;;;;;;;0.81;100.00;94819.09;5014101;28;20096;-71
2022/04/01 03:27:35;;;;;;;12.60;7.93;;;;;;;0.78;100.00;94808.22;5015919;28;20663;-71
2022/04/01 03:30:01;;;;;;;15.30;7.43;;;;;;;0.68;100.00;94826.41;4997451;28;20035;-71
2022/04/01 03:32:27;;;;;;;11.45;7.03;;;;;;;0.62;100.00;94822.81;4984084;28;20058;-69
2022/04/01 03:34:53;;;;;;;13.50;7.95;;;;;;;0.62;100.00;94822.81;4996396;28;20039;-69
2022/04/01 03:37:18;;;;;;;11.38;6.25;;;;;;;0.47;100.00;94817.22;4997696;28;20096;-70
2022/04/01 03:39:45;;;;;;;13.60;7.30;;;;;;;0.54;100.00;94817.88;5001312;28;20551;-69
2022/04/01 03:42:11;;;;;;;11.98;6.90;;;;;;;0.44;100.00;94821.06;4997827;28;20042;-71
2022/04/01 03:44:37;;;;;;;18.95;8.52;;;;;;;0.59;100.00;94825.91;4971313;28;20041;-70
2022/04/01 03:47:34;;;;;;;13.25;7.18;;;;;;;0.50;100.00;94820.19;5001127;28;20072;-70
2022/04/01 03:50:03;;;;;;;27.13;8.52;;;;;;;0.59;100.00;94831.19;4997350;28;20600;-69
2022/04/01 03:52:31;;;;;;;14.35;7.68;;;;;;;0.71;100.00;94826.75;5000438;28;20038;-69
2022/04/01 03:55:02;;;;;;;16.10;9.43;;;;;;;0.75;100.00;94830.53;4989418;28;20116;-70
2022/04/01 03:57:55;;;;;;;16.20;8.18;;;;;;;0.63;100.00;94828.91;4971948;28;20836;-70
2022/04/01 04:00:52;;;;;;;15.35;8.30;;;;;;;0.58;100.00;94837.47;4999076;28;20448;-70
2022/04/01 04:03:18;;;;;;;12.80;7.80;;;;;;;0.42;100.00;94848.66;4998586;28;20486;-69
2022/04/01 04:05:47;;;;;;;14.38;8.18;;;;;;;0.55;100.00;94844.00;5000813;28;20061;-70
2022/04/01 04:08:17;;;;;;;12.05;6.70;;;;;;;0.40;100.00;94854.16;4999054;28;20128;-70
2022/04/01 04:10:46;;;;;;;13.30;7.55;;;;;;;0.44;100.00;94857.91;5000016;28;20495;-71
2022/04/01 04:13:31;;;;;;;18.52;8.25;;;;;;;0.38;100.00;94850.91;5000212;28;20037;-69
2022/04/01 04:16:04;;;;;;;16.73;8.27;;;;;;;0.44;100.00;94850.03;4999225;28;20493;-69
2022/04/01 04:18:43;;;;;;;14.18;7.68;;;;;;;0.46;100.00;94863.75;4996957;28;20366;-70
2022/04/01 04:21:11;;;;;;;14.65;8.18;;;;;;;0.52;100.00;94862.06;4997341;28;20474;-70
2022/04/01 04:23:50;;;;;;;12.23;6.85;;;;;;;0.45;100.00;94858.72;4997766;28;20125;-70
2022/04/01 04:26:46;;;;;;;13.18;7.68;;;;;;;0.28;100.00;94866.44;4996710;28;20536;-70
2022/04/01 04:29:15;;;;;;;12.65;6.63;;;;;;;0.31;100.00;94870.44;4978988;28;20540;-70
2022/04/01 04:32:22;;;;;;;14.35;7.50;;;;;;;0.31;100.00;94871.25;5012255;28;20037;-71
2022/04/01 04:34:50;;;;;;;12.27;6.95;;;;;;;0.46;100.00;94871.66;4998189;28;20038;-69
2022/04/01 04:37:22;;;;;;;13.93;6.72;;;;;;;0.35;100.00;94880.31;4995494;28;20425;-71
2022/04/01 04:39:50;;;;;;;16.10;7.50;;;;;;;0.45;100.00;94874.50;4971015;28;20428;-70
2022/04/01 04:42:16;;;;;;;13.70;7.95;;;;;;;0.40;100.00;94877.84;4998949;28;20046;-70
2022/04/01 04:44:44;;;;;;;13.82;7.57;;;;;;;0.46;100.00;94887.44;4999726;28;20476;-72
2022/04/01 04:47:12;;;;;;;12.88;7.57;;;;;;;0.45;100.00;94887.69;4995723;28;20040;-71
2022/04/01 04:49:42;;;;;;;10.85;6.55;;;;;;;0.33;100.00;94889.47;4997662;28;20563;-71
2022/04/01 04:52:09;;;;;;;18.33;8.07;;;;;;;0.40;100.00;94892.81;5014321;28;20088;-71
2022/04/01 04:54:43;;;;;;;10.20;6.85;;;;;;;0.25;100.00;94886.13;4997799;28;20045;-70
2022/04/01 04:57:15;;;;;;;12.93;7.85;;;;;;;0.24;100.00;94894.25;4998484;28;20029;-70
2022/04/01 04:59:42;;;;;;;15.80;7.57;;;;;;;0.25;100.00;94894.00;4997489;28;20404;-71
2022/04/01 05:02:21;;;;;;;14.98;6.50;;;;;;;0.27;100.00;94899.84;4994454;28;20123;-71
2022/04/01 05:05:05;;;;;;;14.98;7.13;;;;;;;0.19;100.00;94897.53;4994774;28;20087;-70
2022/04/01 05:08:05;;;;;;;12.95;7.07;;;;;;;0.12;100.00;94907.31;4998713;28;20054;-70
2022/04/01 05:10:45;;;;;;;12.23;6.45;;;;;;;0.24;100.00;94913.47;5000093;28;20165;-70
2022/04/01 05:13:23;;;;;;;12.88;6.07;;;;;;;0.15;100.00;94919.22;4996356;28;20105;-71
2022/04/01 05:16:07;;;;;;;10.70;5.93;;;;;;;-0.02;100.00;94924.28;4997701;28;20129;-71
2022/04/01 05:18:50;;;;;;;11.57;5.80;;;;;;;-0.15;100.00;94922.63;5002219;28;20133;-71
2022/04/01 05:21:23;;;;;;;22.27;7.38;;;;;;;-0.23;100.00;94911.56;5011237;28;20061;-71
2022/04/01 05:24:06;;;;;;;10.95;5.72;;;;;;;-0.14;100.00;94931.31;4997648;28;20050;-69
2022/04/01 05:26:41;;;;;;;17.27;6.85;;;;;;;-0.07;100.00;94932.03;4998249;28;20145;-70
2022/04/01 05:29:18;;;;;;;12.52;6.78;;;;;;;0.06;100.00;94933.69;4992327;28;20042;-70
2022/04/01 05:31:54;;;;;;;10.90;6.45;;;;;;;0.21;100.00;94932.31;4976090;28;20104;-71
2022/04/01 05:34:43;;;;;;;19.88;4.95;;;;;;;0.12;100.00;94936.25;4998410;28;20042;-70
2022/04/01 05:37:10;;;;;;;13.63;6.93;;;;;;;-0.04;100.00;94950.00;4988750;28;20069;-70
2022/04/01 05:39:40;;;;;;;10.60;5.78;;;;;;;-0.08;100.00;94947.03;4990899;28;20575;-70
2022/04/01 05:42:09;;;;;;;23.90;8.30;;;;;;;-0.11;100.00;94947.44;4991688;28;20042;-70
2022/04/01 05:44:47;;;;;;;12.85;7.85;;;;;;;0.03;100.00;94942.84;4989796;28;20041;-70
2022/04/01 05:47:13;;;;;;;17.25;7.63;;;;;;;0.08;100.00;94950.88;4967604;28;20586;-71
2022/04/01 05:49:41;;;;;;;17.27;8.35;;;;;;;0.04;100.00;94959.44;4979721;28;20030;-69
2022/04/01 05:52:10;;;;;;;13.13;6.55;;;;;;;-0.05;100.00;94959.72;4978771;28;20045;-71
2022/04/01 05:54:38;;;;;;;9.23;4.88;;;;;;;-0.25;100.00;94967.00;4977455;28;20046;-71
2022/04/01 05:57:07;;;;;;;7.38;4.65;;;;;;;-0.32;100.00;94977.56;4994987;28;20042;-70
2022/04/01 05:59:33;;;;;;;10.93;5.80;;;;;;;-0.12;100.00;94979.22;4991316;28;20049;-71
2022/04/01 06:02:38;;;;;;;9.52;5.68;;;;;;;0.17;100.00;94982.97;4977890;28;20046;-71
2022/04/01 06:05:17;;;;;;;13.02;5.60;;;;;;;0.27;100.00;94984.06;4975658;28;20045;-70
2022/04/01 06:07:58;;;;;;;8.40;5.55;;;;;;;0.23;100.00;94976.81;4990701;28;20361;-69
2022/04/01 06:10:31;;;;;;;10.85;6.10;;;;;;;0.21;100.00;94977.03;4974994;28;20387;-69
2022/04/01 06:13:50;;;;;;;15.30;6.22;;;;;;;0.30;100.00;94985.44;4989341;28;20038;-70
2022/04/01 06:16:57;;;;;;;13.05;6.28;;;;;;;0.31;100.00;94984.41;4995038;28;20302;-71
2022/04/01 06:19:44;;;;;;;8.07;5.00;;;;;;;0.35;100.00;94995.31;4975866;28;20112;-70
2022/04/01 06:22:20;;;;;;;10.43;5.90;;;;;;;0.33;100.00;94992.91;4993688;28;20620;-70
2022/04/01 06:25:13;;;;;;;6.50;4.18;;;;;;;0.30;100.00;94995.94;4978865;28;20041;-69
2022/04/01 06:27:49;;;;;;;7.55;5.03;;;;;;;0.07;100.00;95001.06;4976279;28;20073;-70
2022/04/01 06:30:23;;;;;;;10.05;5.43;;;;;;;-0.16;100.00;94994.59;4997130;28;20056;-70
2022/04/01 06:33:15;;;;;;;7.82;4.78;;;;;;;-0.14;100.00;95004.94;4979032;28;20034;-69
2022/04/01 06:36:18;;;;;;;4.65;3.00;;;;;;;-0.05;100.00;95007.06;4972799;28;20389;-70
2022/04/01 06:38:54;;;;;;;6.38;3.13;;;;;;;-0.10;100.00;95019.25;4998262;28;20065;-69
2022/04/01 06:41:23;;;;;;;12.52;5.53;;;;;;;0.15;100.00;95014.72;4997386;28;20145;-69
2022/04/01 06:44:14;;;;;;;10.07;4.07;;;;;;;0.02;100.00;95028.03;4983375;28;20325;-69
2022/04/01 06:46:40;;;;;;;8.65;5.15;;;;;;;0.01;100.00;95023.81;4994958;28;20042;-69
2022/04/01 06:49:14;;;;;;;11.38;5.32;;;;;;;0.21;100.00;95018.31;4981959;28;20852;-69
2022/04/01 06:52:02;;;;;;;14.93;5.10;;;;;;;0.39;100.00;95022.78;4996096;28;20134;-71
2022/04/01 06:54:46;;;;;;;13.65;6.07;;;;;;;0.15;100.00;95020.00;4995363;28;20118;-71
2022/04/01 06:57:21;;;;;;;11.57;5.15;;;;;;;0.00;100.00;95030.09;4999772;28;20069;-70
2022/04/01 07:00:13;;;;;;;9.15;4.07;;;;;;;0.25;100.00;95025.56;4993262;28;20041;-70
2022/04/01 07:02:41;;;;;;;6.10;3.20;;;;;;;0.13;100.00;95027.31;4997396;28;20057;-69
2022/04/01 07:05:08;;;;;;;10.07;4.38;;;;;;;0.22;100.00;95022.56;4995842;28;20165;-70
2022/04/01 07:07:34;;;;;;;8.85;4.75;;;;;;;0.05;100.00;95032.03;5003645;28;20050;-69
2022/04/01 07:10:01;;;;;;;10.90;4.57;;;;;;;0.27;100.00;95041.13;5002949;28;20125;-70
2022/04/01 07:12:26;;;;;;;7.00;3.75;;;;;;;0.35;100.00;95032.94;5001102;28;20037;-70
2022/04/01 07:14:52;;;;;;;8.85;3.97;;;;;;;0.20;100.00;95032.50;5003969;28;20084;-70
2022/04/01 07:17:17;;;;;;;10.25;6.40;;;;;;;0.40;100.00;95032.31;5003783;28;20037;-70
2022/04/01 07:19:43;;;;;;;7.25;3.13;;;;;;;0.24;100.00;95039.75;5000124;28;20092;-70
2022/04/01 07:22:08;;;;;;;6.90;3.97;;;;;;;0.07;100.00;95038.69;5003013;28;20473;-69
2022/04/01 07:24:34;;;;;;;10.88;4.90;;;;;;;0.14;100.00;95043.88;5002630;28;20040;-70
2022/04/01 07:27:00;;;;;;;9.27;4.85;;;;;;;0.20;100.00;95056.19;5001243;28;20033;-69
2022/04/01 07:29:27;;;;;;;7.50;3.97;;;;;;;-0.03;100.00;95041.81;5002148;28;20717;-69
2022/04/01 07:34:41;;;;;;;3.50;2.15;;;;;;;-0.07;100.00;95055.63;4999637;28;20042;-69
2022/04/01 07:37:08;;;;;;;4.38;2.72;;;;;;;-0.13;100.00;95061.75;5001970;28;20041;-70
2022/04/01 07:39:33;;;;;;;8.05;4.45;;;;;;;0.18;100.00;95066.13;5002103;28;20042;-69
2022/04/01 07:42:00;;;;;;;9.00;4.22;;;;;;;0.16;100.00;95066.34;5000525;28;20250;-69
2022/04/01 07:44:26;;;;;;;5.75;3.05;;;;;;;0.22;100.00;95075.19;5002271;28;20037;-69
2022/04/01 07:46:51;;;;;;;6.82;3.53;;;;;;;0.13;100.00;95074.66;5003030;28;20036;-69
2022/04/01 07:49:18;;;;;;;8.52;4.78;;;;;;;0.22;100.00;95070.72;4999286;28;20030;-68
2022/04/01 07:51:44;;;;;;;8.20;4.55;;;;;;;0.30;100.00;95069.63;5000705;28;20427;-70
2022/04/01 07:54:12;;;;;;;7.35;4.20;;;;;;;0.40;100.00;95071.78;4998750;28;20061;-71
2022/04/01 07:56:40;;;;;;;9.77;4.43;;;;;;;0.65;100.00;95075.16;4998525;28;20096;-69
2022/04/01 07:59:09;;;;;;;7.35;3.60;;;;;;;0.52;100.00;95070.81;5000850;28;20537;-69
2022/04/01 08:01:35;;;;;;;6.53;4.05;;;;;;;0.70;100.00;95077.94;4984873;28;20360;-69
2022/04/01 08:04:01;;;;;;;4.93;3.13;;;;;;;0.45;100.00;95085.88;5001716;28;20359;-69
2022/04/01 08:06:26;;;;;;;3.88;2.25;;;;;;;0.40;100.00;95084.94;5001816;28;20503;-69
2022/04/01 08:08:55;;;;;;;6.97;4.10;;;;;;;0.49;100.00;95087.06;5001386;28;20348;-70
2022/04/01 08:11:23;;;;;;;8.13;3.92;;;;;;;0.58;100.00;95092.03;5000377;28;20612;-70
2022/04/01 08:13:49;;;;;;;5.93;3.75;;;;;;;0.70;100.00;95092.91;5003740;28;20040;-71
2022/04/01 08:16:14;;;;;;;8.50;3.60;;;;;;;0.83;100.00;95087.50;5001565;28;20049;-70
2022/04/01 08:18:40;;;;;;;12.35;4.18;;;;;;;0.67;100.00;95102.06;4982186;28;20499;-69
2022/04/01 08:21:05;;;;;;;6.65;4.10;;;;;;;0.47;100.00;95109.38;4990373;28;20128;-69
2022/04/01 08:23:34;;;;;;;5.43;2.60;;;;;;;0.31;100.00;95112.53;4985431;28;20093;-69
2022/04/01 08:26:03;;;;;;;6.03;3.60;;;;;;;0.23;100.00;95108.34;5001846;28;20034;-69
2022/04/01 08:28:29;;;;;;;3.40;1.67;;;;;;;0.24;100.00;95123.16;4999576;28;20120;-70
2022/04/01 08:30:55;;;;;;;6.45;2.55;;;;;;;0.34;100.00;95123.44;4997911;28;20049;-69
2022/04/01 08:33:20;;;;;;;10.57;4.22;;;;;;;0.50;100.00;95122.09;5003226;28;20084;-70
2022/04/01 08:35:47;;;;;;;7.93;3.80;;;;;;;0.47;100.00;95125.97;4997444;28;20087;-70
2022/04/01 08:38:12;;;;;;;7.38;4.30;;;;;;;0.53;100.00;95129.53;4997749;28;20048;-69
2022/04/01 08:40:38;;;;;;;4.85;3.20;;;;;;;0.56;100.00;95131.75;4999029;28;20049;-69
2022/04/01 08:43:04;;;;;;;6.47;4.05;;;;;;;0.72;100.00;95133.00;5001392;28;20120;-70
2022/04/01 08:45:35;;;;;;;6.63;3.88;;;;;;;0.83;100.00;95129.63;5000809;28;20048;-69
2022/04/01 08:48:02;;;;;;;;;;;;;;;1.05;100.00;95130.78;5003900;28;20577;-69
2022/04/01 08:50:28;;;;;;;2.90;1.75;;;;;;;0.68;100.00;95137.88;5001076;28;19916;-69
2022/04/01 08:52:53;;;;;;;5.00;2.53;;;;;;;0.53;100.00;95142.69;4999190;28;20045;-70
2022/04/01 08:55:19;;;;;;;7.57;3.33;;;;;;;0.57;100.00;95146.50;4998486;28;20804;-70
2022/04/01 08:57:45;;;;;;;4.70;3.08;;;;;;;0.79;100.00;95149.53;4998025;28;20046;-69
2022/04/01 09:00:16;;;;;;;5.10;3.13;;;;;;;0.53;100.00;95140.88;4998027;28;20424;-69
2022/04/01 09:02:43;;;;;;;8.23;4.40;;;;;;;0.82;100.00;95157.78;5000833;28;20520;-70
2022/04/01 09:05:09;;;;;;;6.25;3.70;;;;;;;0.89;100.00;95151.66;4996766;28;20041;-69
2022/04/01 09:07:35;;;;;;;6.43;3.72;;;;;;;0.94;100.00;95165.78;4999162;28;20050;-70
2022/04/01 09:10:06;;;;;;;6.80;4.03;;;;;;;1.07;100.00;95167.44;4999160;28;20051;-68
2022/04/01 09:12:33;;;;;;;7.30;3.20;;;;;;;1.29;100.00;95165.16;4999518;28;20041;-69
2022/04/01 09:14:59;;;;;;;4.88;2.88;;;;;;;1.12;100.00;95164.97;5000566;28;20052;-70
2022/04/01 09:17:42;;;;;;;7.15;3.50;;;;;;;1.12;100.00;95167.59;5002286;28;20045;-69
2022/04/01 09:20:10;;;;;;;7.68;3.70;;;;;;;1.19;100.00;95159.63;4989640;28;20065;-69
2022/04/01 09:22:38;;;;;;;6.30;3.20;;;;;;;1.04;100.00;95167.91;5000999;28;20099;-70
2022/04/01 09:25:09;;;;;;;4.65;3.13;;;;;;;1.27;100.00;95167.22;4999077;28;20062;-71
2022/04/01 09:27:50;;;;;;;5.10;3.00;;;;;;;1.41;100.00;95168.69;4999554;28;20503;-70
2022/04/01 09:30:16;;;;;;;4.95;2.88;;;;;;;1.44;100.00;95164.78;4999558;28;20101;-69
2022/04/01 09:32:44;;;;;;;5.93;3.45;;;;;;;1.64;100.00;95168.78;4999478;28;20045;-69
2022/04/01 09:35:11;;;;;;;6.07;3.55;;;;;;;1.89;100.00;95173.91;4999845;28;20052;-69
2022/04/01 09:37:38;;;;;;;6.22;3.83;;;;;;;1.80;100.00;95162.06;4999773;28;20038;-69
2022/04/01 09:40:05;;;;;;;5.93;3.30;;;;;;;1.68;100.00;95163.84;4995780;28;20049;-70
2022/04/01 09:42:30;;;;;;;9.63;4.03;;;;;;;2.00;100.00;95174.16;4999378;28;20462;-69
2022/04/01 09:45:00;;;;;;;5.70;3.60;;;;;;;2.24;100.00;95173.16;4999727;28;20112;-70
2022/04/01 09:47:25;;;;;;;5.53;3.33;;;;;;;1.90;100.00;95172.06;4998504;28;20044;-69
2022/04/01 09:49:55;;;;;;;5.95;3.60;;;;;;;1.59;100.00;95175.75;4996851;28;20046;-70
2022/04/01 09:52:22;;;;;;;5.93;3.60;;;;;;;1.74;100.00;95178.78;4999707;28;20049;-70
2022/04/01 09:54:54;;;;;;;5.22;3.30;;;;;;;2.35;100.00;95172.38;4998887;28;20100;-69
2022/04/01 09:57:22;;;;;;;5.72;3.22;;;;;;;2.41;100.00;95174.13;4971638;28;20543;-70
2022/04/01 09:59:49;;;;;;;2.50;1.63;;;;;;;1.91;100.00;95179.75;4994760;28;20063;-69
2022/04/01 10:02:15;;;;;;;5.85;2.72;;;;;;;1.62;100.00;95178.72;4985283;28;20046;-69
2022/04/01 10:04:41;;;;;;;5.32;2.22;;;;;;;1.85;100.00;95185.13;5000229;28;20057;-69
2022/04/01 10:07:07;;;;;;;6.22;3.17;;;;;;;1.91;100.00;95185.03;4997604;28;20179;-71
2022/04/01 10:09:34;;;;;;;6.40;3.75;;;;;;;2.38;100.00;95179.84;4988443;28;20110;-70
2022/04/01 10:12:02;;;;;;;5.07;3.10;;;;;;;3.07;100.00;95188.78;4973679;28;20069;-69
2022/04/01 10:14:29;;;;;;;6.78;3.30;;;;;;;3.00;100.00;95195.22;4996607;28;20709;-70
2022/04/01 10:16:59;;;;;;;3.60;2.25;;;;;;;2.17;100.00;95188.28;4999510;28;20687;-70
2022/04/01 10:19:29;;;;;;;7.00;3.55;;;;;;;2.17;100.00;95189.09;4993261;28;20049;-69
2022/04/01 10:21:56;;;;;;;3.50;2.35;;;;;;;2.33;100.00;95192.91;4998925;28;20033;-70
2022/04/01 10:24:44;;;;;;;8.80;3.92;;;;;;;2.39;100.00;95199.13;4999215;28;20436;-71
2022/04/01 10:27:23;;;;;;;5.82;3.38;;;;;;;2.32;100.00;95195.78;4999246;28;20038;-70
2022/04/01 10:29:49;;;;;;;5.15;3.03;;;;;;;2.59;100.00;95201.44;4998659;28;20121;-69
2022/04/01 10:32:36;;;;;;;5.93;3.28;;;;;;;2.02;100.00;95201.09;4303647;28;10000593;-70
2022/04/01 10:35:04;;;;;;;7.00;3.58;;;;;;;2.11;100.00;95210.34;4997668;28;20029;-70
2022/04/01 10:37:31;;;;;;;7.85;3.63;;;;;;;1.99;100.00;95198.94;4999720;28;20039;-70
2022/04/01 10:40:04;;;;;;;7.38;3.97;;;;;;;1.63;100.00;95195.34;4999875;28;20121;-70
2022/04/01 10:42:34;;;;;;;5.75;3.20;;;;;;;1.85;100.00;95203.56;4998809;28;20188;-69
2022/04/01 10:45:29;;;;;;;6.30;3.63;;;;;;;1.85;100.00;95207.00;4997078;28;20501;-70
2022/04/01 10:53:34;;;;;;;9.30;4.85;;;;;;;2.34;100.00;95214.88;4996155;28;20137;-70
2022/04/01 10:56:24;;;;;;;9.73;4.60;;;;;;;2.04;100.00;95210.41;4965536;28;20085;-70
2022/04/01 10:59:19;;;;;;;10.23;5.10;;;;;;;2.02;100.00;95216.94;4998183;28;20153;-70
2022/04/01 11:01:53;;;;;;;10.57;5.63;;;;;;;2.32;100.00;95214.25;4995290;28;20905;-70
2022/04/01 11:04:20;;;;;;;8.95;4.82;;;;;;;2.06;100.00;95218.91;4998051;28;20666;-70
2022/04/01 11:06:50;;;;;;;12.23;5.22;;;;;;;1.93;100.00;95217.25;4999866;28;20037;-70
2022/04/01 11:09:47;;;;;;;8.05;4.53;;;;;;;1.63;100.00;95224.34;4998399;28;20052;-69
2022/04/01 11:12:25;;;;;;;9.27;4.93;;;;;;;1.36;100.00;95227.31;4997192;28;20069;-69
2022/04/01 11:14:53;;;;;;;8.15;3.97;;;;;;;1.43;100.00;95226.44;4999183;28;20045;-70
2022/04/01 11:17:28;;;;;;;9.27;4.05;;;;;;;1.21;100.00;95232.16;5000416;28;20041;-70
2022/04/01 11:20:04;;;;;;;6.80;3.75;;;;;;;1.31;100.00;95235.06;4997671;28;20525;-69
2022/04/01 11:22:52;;;;;;;9.00;3.42;;;;;;;1.08;100.00;95232.28;5000271;28;20053;-69
2022/04/01 11:25:24;;;;;;;6.40;3.63;;;;;;;1.33;100.00;95235.69;4990947;28;20586;-70
2022/04/01 11:27:51;;;;;;;;;;;;;;;1.72;100.00;95238.88;5001274;28;20531;-70
2022/04/01 11:30:22;;;;;;;10.15;5.40;;;;;;;2.06;100.00;95236.59;5000896;28;19966;-69
2022/04/01 11:32:53;;;;;;;12.23;5.80;;;;;;;2.12;100.00;95241.78;4999557;28;20493;-68
2022/04/01 11:35:21;;;;;;;5.40;3.33;;;;;;;1.64;100.00;95236.53;4997504;28;20307;-70
2022/04/01 11:37:47;;;;;;;11.27;5.28;;;;;;;1.51;100.00;95247.25;4998441;28;20041;-70
2022/04/01 11:40:27;;;;;;;9.50;5.10;;;;;;;1.38;100.00;95242.91;4999881;28;20073;-70
2022/04/01 11:42:54;;;;;;;7.25;4.30;;;;;;;0.93;100.00;95245.00;4998562;28;20049;-70
2022/04/01 11:45:20;;;;;;;7.82;5.10;;;;;;;0.99;100.00;95242.31;4999373;28;20034;-69
2022/04/01 11:47:46;;;;;;;6.60;4.25;;;;;;;1.12;100.00;95249.28;4999067;28;20046;-69
2022/04/01 11:50:14;;;;;;;7.20;4.53;;;;;;;0.99;100.00;95244.13;4998871;28;20038;-68
2022/04/01 11:52:44;;;;;;;6.22;3.50;;;;;;;1.01;100.00;95240.28;4997156;28;20071;-69
2022/04/01 11:55:21;;;;;;;8.60;4.32;;;;;;;1.17;100.00;95249.44;4972711;28;20054;-69
2022/04/01 11:57:48;;;;;;;8.95;3.88;;;;;;;1.09;100.00;95247.09;4999109;28;20066;-70
2022/04/01 12:00:19;;;;;;;11.27;4.25;;;;;;;1.34;100.00;95258.38;4996105;28;20088;-70